Time;durP1;ratioP1;P1;durP2;ratioP2;P2;SDS_P1;SDS_P2;PMS_P1;PMS_P2;Temp;Humidity;BMP_temperature;BMP_pressure;BME280_temperature;BME280_humidity;BME280_pressure;Samples;Min_cycle;Max_cycle;Signal;HPM_P1;HPM_P2
2022/08/14 00:01:09;;;;;;;3.87;3.57;;;23.70;43.90;;;;;;5034461;28;20271;-49
2022/08/14 00:03:35;;;;;;;5.53;4.37;;;23.70;44.00;;;;;;5032234;28;20197;-49
2022/08/14 00:06:02;;;;;;;5.03;4.63;;;23.50;44.40;;;;;;5034182;28;20455;-48
2022/08/14 00:08:29;;;;;;;4.57;4.17;;;23.50;44.50;;;;;;5034282;28;20899;-48
2022/08/14 00:10:55;;;;;;;4.70;4.30;;;23.50;44.60;;;;;;5033719;28;20908;-46
2022/08/14 00:13:23;;;;;;;4.60;4.30;;;23.40;44.60;;;;;;5034071;28;20440;-45
2022/08/14 00:15:50;;;;;;;4.20;3.90;;;23.60;44.50;;;;;;5033582;28;20587;-48
2022/08/14 00:18:19;;;;;;;3.87;3.57;;;23.70;44.30;;;;;;5034022;28;20470;-45
2022/08/14 00:20:44;;;;;;;7.10;4.70;;;23.40;44.80;;;;;;5033732;28;20424;-45
2022/08/14 00:23:13;;;;;;;5.10;4.70;;;23.30;45.00;;;;;;5034188;28;20787;-45
2022/08/14 00:25:39;;;;;;;4.67;4.27;;;23.50;44.60;;;;;;5033209;28;20211;-46
2022/08/14 00:28:09;;;;;;;4.77;4.47;;;23.60;44.40;;;;;;5033580;28;20927;-45
2022/08/14 00:30:36;;;;;;;4.57;4.27;;;23.70;44.20;;;;;;5031737;28;20432;-45
2022/08/14 00:33:03;;;;;;;5.10;4.70;;;23.70;44.20;;;;;;5033807;28;20579;-46
2022/08/14 00:35:29;;;;;;;4.30;3.90;;;23.30;44.90;;;;;;5033251;28;20462;-45
2022/08/14 00:37:55;;;;;;;4.90;4.60;;;22.90;45.90;;;;;;5033254;28;20468;-44
2022/08/14 00:40:21;;;;;;;4.70;4.40;;;22.90;46.20;;;;;;5033168;28;20221;-45
2022/08/14 00:42:47;;;;;;;4.70;4.20;;;22.80;46.10;;;;;;5033660;28;20259;-45
2022/08/14 00:45:14;;;;;;;5.83;4.87;;;22.80;46.30;;;;;;5032655;28;20197;-46
2022/08/14 00:47:42;;;;;;;4.60;4.20;;;22.60;47.30;;;;;;5033441;28;20435;-46
2022/08/14 00:50:09;;;;;;;4.40;4.10;;;22.60;46.70;;;;;;5033161;28;20902;-45
2022/08/14 00:52:35;;;;;;;4.90;4.40;;;22.70;46.70;;;;;;5033273;28;20936;-48
2022/08/14 00:55:01;;;;;;;4.50;4.10;;;22.70;46.50;;;;;;5032932;28;20510;-46
2022/08/14 00:57:30;;;;;;;4.53;4.23;;;22.60;46.50;;;;;;5031535;28;20207;-46
2022/08/14 00:59:56;;;;;;;4.40;4.00;;;22.70;46.40;;;;;;5032737;28;20432;-45
2022/08/14 01:02:23;;;;;;;4.60;4.20;;;22.60;46.60;;;;;;5033351;28;20892;-48
2022/08/14 01:04:51;;;;;;;4.20;3.90;;;22.60;46.60;;;;;;5033129;28;20432;-47
2022/08/14 01:07:20;;;;;;;4.50;4.10;;;22.70;46.60;;;;;;5032966;28;20419;-49
2022/08/14 01:09:54;;;;;;;4.60;4.20;;;22.70;46.40;;;;;;5032506;28;20507;-45
2022/08/14 01:12:21;;;;;;;4.17;3.87;;;22.80;46.30;;;;;;5033080;28;20518;-45
2022/08/14 01:14:53;;;;;;;4.40;4.10;;;22.60;46.40;;;;;;5032894;28;20442;-45
2022/08/14 01:17:20;;;;;;;4.63;4.23;;;22.60;46.20;;;;;;5032596;28;20428;-46
2022/08/14 01:22:31;;;;;;;5.80;4.00;;;22.80;45.90;;;;;;5031630;28;20515;-46
2022/08/14 01:24:56;;;;;;;5.80;4.30;;;22.90;45.80;;;;;;5032390;28;21170;-45
2022/08/14 01:27:23;;;;;;;4.70;4.30;;;22.80;46.00;;;;;;5032388;28;20244;-49
2022/08/14 01:29:52;;;;;;;4.93;4.53;;;22.80;46.10;;;;;;5032116;28;20189;-46
2022/08/14 01:32:20;;;;;;;4.53;4.13;;;22.80;45.90;;;;;;5032787;28;20586;-45
2022/08/14 01:34:52;;;;;;;4.40;4.10;;;22.80;45.80;;;;;;5032096;28;20915;-47
2022/08/14 01:37:18;;;;;;;4.50;4.13;;;22.90;45.60;;;;;;5032623;28;21595;-45
2022/08/14 01:39:44;;;;;;;4.47;4.07;;;22.90;45.50;;;;;;5032001;28;20784;-45
2022/08/14 01:42:10;;;;;;;5.30;4.20;;;22.90;45.70;;;;;;5032501;28;20212;-45
2022/08/14 01:44:37;;;;;;;4.70;4.23;;;22.90;45.70;;;;;;5031984;28;20428;-48
2022/08/14 01:47:13;;;;;;;4.77;4.10;;;22.70;45.80;;;;;;5032025;28;20443;-45
2022/08/14 01:49:40;;;;;;;4.40;4.00;;;22.60;46.10;;;;;;5030419;28;20435;-48
2022/08/14 01:52:07;;;;;;;5.03;4.37;;;22.50;46.50;;;;;;5032095;28;20491;-47
2022/08/14 01:54:34;;;;;;;5.40;3.70;;;22.40;46.90;;;;;;5031588;28;20530;-49
2022/08/14 01:57:00;;;;;;;4.50;4.10;;;22.30;47.10;;;;;;5031540;28;20944;-49
2022/08/14 01:59:32;;;;;;;4.53;4.23;;;22.30;47.20;;;;;;5031519;28;20431;-49
2022/08/14 02:02:08;;;;;;;4.60;4.20;;;22.40;47.30;;;;;;5032185;28;20850;-49
2022/08/14 02:04:35;;;;;;;6.57;4.50;;;22.50;47.00;;;;;;5031582;28;20424;-48
2022/08/14 02:07:02;;;;;;;3.70;3.40;;;22.40;47.10;;;;;;5031888;28;20804;-49
2022/08/14 02:09:34;;;;;;;4.70;4.30;;;22.30;47.10;;;;;;5031577;28;20436;-48
2022/08/14 02:12:01;;;;;;;5.10;4.70;;;22.10;47.70;;;;;;5031766;28;20519;-48
2022/08/14 02:14:28;;;;;;;4.47;4.07;;;22.00;48.00;;;;;;5031457;28;20529;-48
2022/08/14 02:16:56;;;;;;;4.70;4.40;;;21.90;47.90;;;;;;5030005;28;20481;-49
2022/08/14 02:19:26;;;;;;;4.37;4.03;;;21.90;48.20;;;;;;5031496;28;20435;-48
2022/08/14 02:21:54;;;;;;;5.40;4.90;;;21.90;48.10;;;;;;5031718;28;20431;-49
2022/08/14 02:24:22;;;;;;;4.67;4.27;;;21.90;48.10;;;;;;5031251;28;20417;-48
2022/08/14 02:26:50;;;;;;;4.80;4.40;;;22.00;48.20;;;;;;5031422;28;20455;-48
2022/08/14 02:29:20;;;;;;;5.53;4.30;;;22.00;47.90;;;;;;5031220;28;20518;-46
2022/08/14 02:31:49;;;;;;;4.40;4.10;;;22.10;47.80;;;;;;5031450;28;20537;-48
2022/08/14 02:34:19;;;;;;;4.97;4.57;;;22.20;47.50;;;;;;5031164;28;20424;-48
2022/08/14 02:36:46;;;;;;;5.40;4.20;;;22.20;47.40;;;;;;5031143;28;20416;-48
2022/08/14 02:39:14;;;;;;;4.60;4.30;;;22.30;47.30;;;;;;5031280;28;20424;-45
2022/08/14 02:41:40;;;;;;;5.17;4.80;;;22.40;47.50;;;;;;5031486;28;20424;-49
2022/08/14 02:44:09;;;;;;;4.43;3.97;;;22.30;47.00;;;;;;5029381;28;20499;-49
2022/08/14 02:46:39;;;;;;;7.00;4.20;;;22.40;46.80;;;;;;5031073;28;20435;-49
2022/08/14 02:49:05;;;;;;;5.00;4.60;;;22.50;46.80;;;;;;5030639;28;20468;-49
2022/08/14 02:51:32;;;;;;;5.20;4.70;;;22.50;46.60;;;;;;5030894;28;20496;-45
2022/08/14 02:54:00;;;;;;;4.77;4.27;;;22.50;46.50;;;;;;5030648;28;20201;-47
2022/08/14 02:56:26;;;;;;;4.50;4.10;;;22.50;46.50;;;;;;5030892;28;20465;-49
2022/08/14 02:58:55;;;;;;;4.10;3.80;;;22.50;46.50;;;;;;5030829;28;20446;-47
2022/08/14 03:01:22;;;;;;;4.30;4.00;;;22.40;46.70;;;;;;5030909;28;20440;-49
2022/08/14 03:03:49;;;;;;;4.70;4.40;;;22.40;46.80;;;;;;5030874;28;20427;-48
2022/08/14 03:06:19;;;;;;;4.77;4.47;;;22.30;46.90;;;;;;5030769;28;20915;-48
2022/08/14 03:08:45;;;;;;;5.03;4.73;;;22.20;47.10;;;;;;5029162;28;20832;-45
2022/08/14 03:11:12;;;;;;;4.53;4.13;;;22.20;47.20;;;;;;5030656;28;20446;-49
2022/08/14 03:13:40;;;;;;;4.63;4.23;;;22.10;47.50;;;;;;5030455;28;20432;-45
2022/08/14 03:16:13;;;;;;;5.20;4.80;;;21.90;47.90;;;;;;5030669;28;20464;-49
2022/08/14 03:18:42;;;;;;;5.40;4.80;;;21.80;48.20;;;;;;5029159;28;20440;-46
2022/08/14 03:21:12;;;;;;;5.50;5.10;;;21.80;48.10;;;;;;5030915;28;20442;-45
2022/08/14 03:23:40;;;;;;;4.57;4.17;;;21.80;48.10;;;;;;5030255;28;20436;-45
2022/08/14 03:26:08;;;;;;;4.60;4.30;;;21.90;48.20;;;;;;5030492;28;20431;-45
2022/08/14 03:28:34;;;;;;;4.13;3.83;;;21.80;48.40;;;;;;5030310;28;20440;-45
2022/08/14 03:31:00;;;;;;;4.40;4.00;;;21.60;48.60;;;;;;5030443;28;20420;-44
2022/08/14 03:33:26;;;;;;;5.00;4.60;;;21.60;48.60;;;;;;5030689;28;20232;-44
2022/08/14 03:35:52;;;;;;;4.67;4.37;;;21.70;48.50;;;;;;5028459;28;20521;-44
2022/08/14 03:38:18;;;;;;;5.90;4.20;;;21.70;48.30;;;;;;5029568;28;20483;-46
2022/08/14 03:40:45;;;;;;;4.93;4.53;;;21.80;48.20;;;;;;5030104;28;20201;-44
2022/08/14 03:43:12;;;;;;;5.27;4.50;;;21.70;48.30;;;;;;5030633;28;20272;-44
2022/08/14 03:45:38;;;;;;;4.70;4.20;;;21.60;48.40;;;;;;5030162;28;20432;-44
2022/08/14 03:48:18;;;;;;;4.83;4.50;;;21.60;48.60;;;;;;5030209;28;20430;-45
2022/08/14 03:50:48;;;;;;;4.80;4.40;;;21.60;48.50;;;;;;5030009;28;20469;-44
2022/08/14 03:53:14;;;;;;;4.60;4.30;;;21.60;48.40;;;;;;5030695;28;20491;-44
2022/08/14 03:55:41;;;;;;;4.67;4.27;;;21.70;48.30;;;;;;5030006;28;20430;-45
2022/08/14 03:58:10;;;;;;;4.27;4.00;;;21.60;48.30;;;;;;5030052;28;20450;-45
2022/08/14 04:00:37;;;;;;;4.20;3.90;;;21.70;48.30;;;;;;5029922;28;20435;-45
2022/08/14 04:03:04;;;;;;;4.90;4.30;;;21.60;48.40;;;;;;5028898;28;20475;-45
2022/08/14 04:05:31;;;;;;;4.93;4.53;;;21.60;48.70;;;;;;5029604;28;20428;-44
2022/08/14 04:07:57;;;;;;;5.47;5.07;;;21.60;48.60;;;;;;5030169;28;20511;-45
2022/08/14 04:10:23;;;;;;;5.37;4.97;;;21.50;49.00;;;;;;5029888;28;20574;-46
2022/08/14 04:12:49;;;;;;;5.23;4.83;;;21.40;49.00;;;;;;5030492;28;20221;-44
2022/08/14 04:15:18;;;;;;;4.90;4.50;;;21.50;48.90;;;;;;5028710;28;20498;-44
2022/08/14 04:17:45;;;;;;;5.60;5.20;;;21.50;48.70;;;;;;5030166;28;20251;-45
2022/08/14 04:20:11;;;;;;;4.73;4.40;;;21.60;48.70;;;;;;5033257;28;20431;-45
2022/08/14 04:22:42;;;;;;;5.93;4.63;;;21.50;48.60;;;;;;5033994;28;20469;-45
2022/08/14 04:25:08;;;;;;;5.30;4.80;;;21.30;49.30;;;;;;5033638;28;21267;-45
2022/08/14 04:27:34;;;;;;;4.83;4.43;;;21.30;49.40;;;;;;5033379;28;20433;-45
2022/08/14 04:30:00;;;;;;;5.40;5.00;;;21.20;49.60;;;;;;5032013;28;20474;-44
2022/08/14 04:32:26;;;;;;;4.63;4.23;;;21.10;49.60;;;;;;5015832;28;20229;-44
2022/08/14 04:34:53;;;;;;;4.70;4.30;;;21.00;49.70;;;;;;5033333;28;20941;-47
2022/08/14 04:45:53;;;;;;;5.23;4.83;;;20.70;50.70;;;;;;5030025;28;20444;-45
2022/08/14 04:48:19;;;;;;;5.00;4.60;;;20.60;51.00;;;;;;5033107;28;20509;-46
2022/08/14 04:50:48;;;;;;;5.20;4.80;;;20.50;51.10;;;;;;5033247;28;20275;-45
2022/08/14 04:53:19;;;;;;;4.83;4.43;;;20.20;52.00;;;;;;5033662;28;20483;-45
2022/08/14 04:55:47;;;;;;;5.03;4.70;;;20.00;53.10;;;;;;5031048;28;20443;-45
2022/08/14 04:58:21;;;;;;;5.20;4.77;;;19.90;52.90;;;;;;5033413;28;20463;-46
2022/08/14 05:00:49;;;;;;;4.63;4.30;;;19.80;53.30;;;;;;5032664;28;20986;-46
2022/08/14 05:03:22;;;;;;;5.17;4.67;;;20.00;52.90;;;;;;5033305;28;20801;-44
2022/08/14 05:05:50;;;;;;;7.23;4.90;;;20.30;52.40;;;;;;5032388;28;20428;-45
2022/08/14 05:08:16;;;;;;;6.57;4.10;;;20.20;52.30;;;;;;5033404;28;20474;-45
2022/08/14 05:10:52;;;;;;;4.80;4.40;;;20.10;52.60;;;;;;5032734;28;20474;-45
2022/08/14 05:13:22;;;;;;;5.50;5.10;;;20.00;53.00;;;;;;5033192;28;20521;-45
2022/08/14 05:15:51;;;;;;;5.30;4.90;;;20.10;52.90;;;;;;5032424;28;20483;-46
2022/08/14 05:18:22;;;;;;;5.50;5.00;;;20.30;52.40;;;;;;5032852;28;20432;-44
2022/08/14 05:20:54;;;;;;;7.23;4.70;;;20.50;51.70;;;;;;5032481;28;20475;-46
2022/08/14 05:23:25;;;;;;;6.50;4.67;;;20.80;51.20;;;;;;5031511;28;20424;-46
2022/08/14 05:26:02;;;;;;;5.00;4.47;;;21.00;51.00;;;;;;5031990;28;20415;-45
2022/08/14 05:28:30;;;;;;;4.90;4.00;;;21.10;50.70;;;;;;5033017;28;20438;-46
2022/08/14 05:31:06;;;;;;;4.70;4.10;;;21.10;50.90;;;;;;5031310;28;20420;-45
2022/08/14 05:33:33;;;;;;;5.53;5.13;;;21.10;50.90;;;;;;5032493;28;20483;-46
2022/08/14 05:36:01;;;;;;;5.07;4.67;;;21.20;50.60;;;;;;5032251;28;20519;-47
2022/08/14 05:38:37;;;;;;;5.30;4.90;;;21.00;50.90;;;;;;5032237;28;20563;-45
2022/08/14 05:41:07;;;;;;;4.93;4.63;;;21.00;51.20;;;;;;5032917;28;20424;-48
2022/08/14 05:43:33;;;;;;;5.50;4.97;;;21.20;50.90;;;;;;5032449;28;20810;-47
2022/08/14 05:46:00;;;;;;;4.80;4.50;;;21.40;50.50;;;;;;5032144;28;20428;-45
2022/08/14 05:48:27;;;;;;;5.00;4.60;;;21.50;50.20;;;;;;5032129;28;20193;-45
2022/08/14 05:50:53;;;;;;;5.30;4.40;;;21.60;50.10;;;;;;5030331;28;20424;-49
2022/08/14 05:53:23;;;;;;;4.90;4.50;;;21.70;50.00;;;;;;5032176;28;20500;-45
2022/08/14 05:55:49;;;;;;;5.73;4.53;;;21.60;50.20;;;;;;5031173;28;20432;-48
2022/08/14 05:58:15;;;;;;;4.37;4.07;;;21.60;50.60;;;;;;5032378;28;20424;-48
2022/08/14 06:00:43;;;;;;;5.70;5.10;;;21.40;50.60;;;;;;5031762;28;20629;-46
2022/08/14 06:03:13;;;;;;;4.80;4.40;;;21.50;50.60;;;;;;5032081;28;20444;-44
2022/08/14 06:05:39;;;;;;;4.63;4.33;;;21.60;50.20;;;;;;5031001;28;20434;-45
2022/08/14 06:08:15;;;;;;;5.73;5.17;;;21.70;50.10;;;;;;5032051;28;20554;-44
2022/08/14 06:10:41;;;;;;;5.03;4.63;;;21.90;49.70;;;;;;5031543;28;20439;-45
2022/08/14 06:13:06;;;;;;;5.40;4.90;;;22.20;49.10;;;;;;5031841;28;20590;-46
2022/08/14 06:15:32;;;;;;;4.77;4.37;;;22.40;48.60;;;;;;5030168;28;20193;-47
2022/08/14 06:17:58;;;;;;;5.13;4.70;;;22.20;48.70;;;;;;5031362;28;20240;-48
2022/08/14 06:20:24;;;;;;;4.37;4.10;;;22.40;48.60;;;;;;5031355;28;20193;-48
2022/08/14 06:22:50;;;;;;;4.57;4.17;;;22.40;48.50;;;;;;5031997;28;20837;-48
2022/08/14 06:25:16;;;;;;;4.47;4.07;;;22.50;48.50;;;;;;5031319;28;20424;-49
2022/08/14 06:27:46;;;;;;;4.10;3.80;;;22.70;48.10;;;;;;5031139;28;20246;-46
2022/08/14 06:30:22;;;;;;;4.40;4.10;;;22.90;47.90;;;;;;5031299;28;20436;-47
2022/08/14 06:32:48;;;;;;;4.43;4.03;;;23.00;47.60;;;;;;5031710;28;20513;-47
2022/08/14 06:35:17;;;;;;;4.93;4.50;;;22.90;47.50;;;;;;5031144;28;20440;-46
2022/08/14 06:37:48;;;;;;;4.80;4.50;;;23.00;47.40;;;;;;5031189;28;20510;-47
2022/08/14 06:40:34;;;;;;;6.10;4.43;;;23.20;47.10;;;;;;5031282;28;20523;-49
2022/08/14 06:43:08;;;;;;;5.00;4.60;;;23.40;46.50;;;;;;5029104;28;20934;-47
2022/08/14 06:45:36;;;;;;;4.37;3.97;;;23.60;46.30;;;;;;5030359;28;20954;-45
2022/08/14 06:48:04;;;;;;;5.30;4.97;;;23.80;46.20;;;;;;5031274;28;20424;-47
2022/08/14 06:50:30;;;;;;;4.67;4.27;;;24.00;45.70;;;;;;5030910;28;20798;-46
2022/08/14 06:52:57;;;;;;;4.80;4.50;;;24.20;45.40;;;;;;5031040;28;20487;-48
2022/08/14 06:55:22;;;;;;;4.87;4.47;;;24.40;44.90;;;;;;5030681;28;20435;-47
2022/08/14 06:57:50;;;;;;;4.33;4.03;;;24.50;44.70;;;;;;5030823;28;20980;-49
2022/08/14 07:00:20;;;;;;;4.57;4.17;;;24.70;44.50;;;;;;5030966;28;20227;-46
2022/08/14 07:08:29;;;;;;;4.43;3.90;;;25.10;43.70;;;;;;5023557;28;20441;-48
2022/08/14 07:10:57;;;;;;;4.90;4.60;;;25.30;43.40;;;;;;5028875;28;20451;-45
2022/08/14 07:13:24;;;;;;;4.33;4.03;;;25.50;42.90;;;;;;5031116;28;20502;-48
2022/08/14 07:15:52;;;;;;;4.87;4.43;;;25.60;42.30;;;;;;5030059;28;20450;-49
2022/08/14 07:18:23;;;;;;;4.83;4.43;;;25.70;42.00;;;;;;5031081;28;20912;-46
2022/08/14 07:20:49;;;;;;;4.87;4.37;;;25.40;42.60;;;;;;5030320;28;20430;-48
2022/08/14 07:23:15;;;;;;;3.80;3.60;;;25.60;42.60;;;;;;5031273;28;20436;-48
2022/08/14 07:25:42;;;;;;;4.10;3.80;;;25.90;42.30;;;;;;5029938;28;20771;-48
2022/08/14 07:28:31;;;;;;;4.23;3.87;;;26.20;41.60;;;;;;5030563;28;20532;-46
2022/08/14 07:30:58;;;;;;;4.20;3.90;;;26.60;41.30;;;;;;5030519;28;20517;-45
2022/08/14 07:33:26;;;;;;;4.27;3.63;;;26.90;40.50;;;;;;5030563;28;20491;-47
2022/08/14 07:35:53;;;;;;;4.07;3.77;;;27.10;40.00;;;;;;5027974;28;20719;-47
2022/08/14 07:38:20;;;;;;;3.90;3.70;;;27.30;40.00;;;;;;5030586;28;20513;-48
2022/08/14 07:40:48;;;;;;;4.00;3.37;;;27.70;39.40;;;;;;5030314;28;20957;-47
2022/08/14 07:43:13;;;;;;;3.83;3.53;;;28.10;38.30;;;;;;5030719;28;20420;-46
2022/08/14 07:45:40;;;;;;;5.43;4.00;;;28.40;37.90;;;;;;5029652;28;20729;-46
2022/08/14 07:48:05;;;;;;;4.00;3.57;;;28.60;37.40;;;;;;5030520;28;20201;-49
2022/08/14 07:50:32;;;;;;;3.93;3.63;;;28.90;36.70;;;;;;5030137;28;20450;-49
2022/08/14 07:52:59;;;;;;;3.27;3.07;;;29.10;36.70;;;;;;5030328;28;20267;-46
2022/08/14 07:55:25;;;;;;;4.20;3.90;;;29.20;36.40;;;;;;5033482;28;20428;-48
2022/08/14 07:57:51;;;;;;;5.27;3.73;;;29.40;36.20;;;;;;5034475;28;20944;-49
2022/08/14 08:00:22;;;;;;;3.83;3.53;;;29.50;35.80;;;;;;5033846;28;20908;-48
2022/08/14 08:02:51;;;;;;;4.27;3.57;;;29.70;35.00;;;;;;5028141;28;20443;-46
2022/08/14 08:05:17;;;;;;;7.60;3.90;;;29.90;34.60;;;;;;5033944;28;20435;-47
2022/08/14 08:07:44;;;;;;;3.93;3.53;;;30.00;34.20;;;;;;5034194;28;20447;-46
2022/08/14 08:10:32;;;;;;;3.50;3.00;;;30.00;34.10;;;;;;5033961;28;20416;-48
2022/08/14 08:13:11;;;;;;;3.87;3.57;;;30.10;33.90;;;;;;5034161;28;20518;-49
2022/08/14 08:15:39;;;;;;;3.77;3.47;;;30.30;34.10;;;;;;5033204;28;20562;-50
2022/08/14 08:18:12;;;;;;;3.40;3.10;;;30.50;33.40;;;;;;5033957;28;20466;-47
2022/08/14 08:20:42;;;;;;;5.53;3.23;;;30.60;33.00;;;;;;5033724;28;20432;-48
2022/08/14 08:23:09;;;;;;;3.50;3.20;;;30.70;33.00;;;;;;5034289;28;20915;-48
2022/08/14 08:25:37;;;;;;;3.20;2.87;;;30.80;32.20;;;;;;5032863;28;20472;-49
2022/08/14 08:28:16;;;;;;;3.20;3.00;;;30.90;32.30;;;;;;5034135;28;20427;-45
2022/08/14 08:30:56;;;;;;;2.80;2.70;;;31.10;31.60;;;;;;5031809;28;20436;-46
2022/08/14 08:33:25;;;;;;;3.07;2.87;;;30.90;30.20;;;;;;5033818;28;20571;-48
2022/08/14 08:35:51;;;;;;;3.20;2.80;;;31.10;30.20;;;;;;5032730;28;20474;-47
2022/08/14 08:38:23;;;;;;;3.03;2.83;;;31.10;29.90;;;;;;5033768;28;20459;-49
2022/08/14 08:40:51;;;;;;;3.17;3.00;;;31.30;29.60;;;;;;5033290;28;20442;-47
2022/08/14 08:43:23;;;;;;;3.17;2.97;;;31.20;29.70;;;;;;5033836;28;20431;-45
2022/08/14 08:46:11;;;;;;;3.13;2.83;;;31.30;29.60;;;;;;5032882;28;20424;-47
2022/08/14 08:48:55;;;;;;;3.83;3.37;;;31.40;29.50;;;;;;5033461;28;20862;-50
2022/08/14 08:51:26;;;;;;;3.50;3.20;;;31.40;29.60;;;;;;5033519;28;20806;-45
2022/08/14 08:54:06;;;;;;;3.37;3.17;;;31.30;29.50;;;;;;5032954;28;20506;-48
2022/08/14 08:56:52;;;;;;;3.77;3.53;;;31.50;29.50;;;;;;5031594;28;20535;-45
2022/08/14 08:59:29;;;;;;;3.40;3.20;;;31.80;29.40;;;;;;5032811;28;20530;-46
2022/08/14 09:01:58;;;;;;;4.07;3.77;;;32.00;29.30;;;;;;5033312;28;20447;-45
2022/08/14 09:04:25;;;;;;;3.50;3.00;;;32.40;29.20;;;;;;5032391;28;20444;-46
2022/08/14 09:06:52;;;;;;;3.40;3.20;;;32.40;28.80;;;;;;5032901;28;20428;-46
2022/08/14 09:09:18;;;;;;;3.50;3.30;;;32.30;28.90;;;;;;5032931;28;20449;-46
2022/08/14 09:11:44;;;;;;;3.60;3.30;;;32.60;28.70;;;;;;5033283;28;20959;-45
2022/08/14 09:14:10;;;;;;;4.30;3.53;;;32.70;28.60;;;;;;5032418;28;20440;-46
2022/08/14 09:16:36;;;;;;;3.20;3.00;;;32.80;28.50;;;;;;5032799;28;20451;-46
2022/08/14 09:19:02;;;;;;;3.30;3.10;;;32.80;28.30;;;;;;5032471;28;20671;-46
2022/08/14 09:21:29;;;;;;;3.97;3.67;;;32.90;28.30;;;;;;5033372;28;20281;-46
2022/08/14 09:23:55;;;;;;;3.60;3.30;;;33.00;28.00;;;;;;5030703;28;20764;-45
2022/08/14 09:26:21;;;;;;;3.57;3.37;;;33.30;28.00;;;;;;5032733;28;20846;-45
2022/08/14 09:28:47;;;;;;;4.03;3.70;;;33.30;27.70;;;;;;5032459;28;20181;-45
2022/08/14 09:31:14;;;;;;;3.03;2.93;;;33.10;27.80;;;;;;5032928;28;20284;-46
2022/08/14 09:33:58;;;;;;;3.63;3.43;;;33.20;28.00;;;;;;5032011;28;20229;-45
2022/08/14 09:36:39;;;;;;;3.70;3.50;;;33.40;28.20;;;;;;5032380;28;20557;-45
2022/08/14 09:39:19;;;;;;;4.00;3.70;;;33.50;27.60;;;;;;5032219;28;20451;-46
2022/08/14 09:42:03;;;;;;;4.07;3.77;;;33.80;27.30;;;;;;5032622;28;20507;-46
2022/08/14 09:44:54;;;;;;;3.73;3.43;;;34.10;26.60;;;;;;5031948;28;20431;-46
2022/08/14 09:47:20;;;;;;;3.47;3.27;;;34.10;26.60;;;;;;5031888;28;20478;-46
2022/08/14 09:49:46;;;;;;;3.80;3.50;;;34.20;26.30;;;;;;5030423;28;20420;-46
2022/08/14 09:52:14;;;;;;;3.70;3.50;;;34.40;26.50;;;;;;5032343;28;20233;-47
2022/08/14 09:54:43;;;;;;;3.63;3.33;;;34.70;26.20;;;;;;5031375;28;20447;-45
2022/08/14 09:57:12;;;;;;;3.40;3.20;;;34.60;25.90;;;;;;5031992;28;20424;-46
2022/08/14 09:59:48;;;;;;;3.70;3.50;;;34.70;25.80;;;;;;5031721;28;20886;-46
2022/08/14 10:02:26;;;;;;;3.70;3.50;;;34.90;25.60;;;;;;5032458;28;20442;-47
2022/08/14 10:05:08;;;;;;;4.50;3.73;;;35.00;25.00;;;;;;5031301;28;20457;-46
2022/08/14 10:07:49;;;;;;;3.93;3.73;;;34.10;25.30;;;;;;5032115;28;20441;-46
2022/08/14 10:10:34;;;;;;;3.90;3.60;;;34.00;25.60;;;;;;5031742;28;20827;-45
2022/08/14 10:13:02;;;;;;;3.97;3.67;;;34.30;25.40;;;;;;5032030;28;20509;-45
2022/08/14 10:15:30;;;;;;;3.43;3.13;;;34.40;25.40;;;;;;5029828;28;20424;-50
2022/08/14 10:18:13;;;;;;;4.60;3.60;;;34.80;25.30;;;;;;5029760;28;20498;-46
2022/08/14 10:20:43;;;;;;;4.27;3.60;;;35.00;24.80;;;;;;5031288;28;20522;-46
2022/08/14 10:23:20;;;;;;;3.33;3.13;;;35.00;24.60;;;;;;5031848;28;20439;-47
2022/08/14 10:25:51;;;;;;;6.30;3.33;;;35.40;24.60;;;;;;5031062;28;20474;-46
2022/08/14 10:28:21;;;;;;;3.70;3.50;;;35.40;24.40;;;;;;5031791;28;20458;-49
2022/08/14 10:30:52;;;;;;;4.20;3.90;;;35.40;24.40;;;;;;5031619;28;20474;-49
2022/08/14 10:33:30;;;;;;;4.07;3.43;;;35.60;24.30;;;;;;5031736;28;20526;-49
2022/08/14 10:35:59;;;;;;;4.10;3.80;;;35.10;24.50;;;;;;5030773;28;20794;-51
2022/08/14 10:38:34;;;;;;;4.00;3.43;;;34.70;24.80;;;;;;5031051;28;20476;-50
2022/08/14 10:41:14;;;;;;;3.97;3.67;;;34.80;24.70;;;;;;5031433;28;20436;-50
2022/08/14 10:43:42;;;;;;;4.10;3.70;;;34.70;24.80;;;;;;5029278;28;20436;-50
2022/08/14 10:46:15;;;;;;;3.97;3.70;;;35.00;24.80;;;;;;5031105;28;20459;-49
2022/08/14 10:48:54;;;;;;;4.70;4.00;;;35.20;24.60;;;;;;5031034;28;20854;-50
2022/08/14 10:51:27;;;;;;;3.50;3.30;;;35.30;24.20;;;;;;5031472;28;20854;-50
2022/08/14 10:53:54;;;;;;;3.90;3.70;;;35.00;24.50;;;;;;5030967;28;20428;-50
2022/08/14 10:56:34;;;;;;;3.97;3.67;;;35.30;24.70;;;;;;5030568;28;20786;-50
2022/08/14 10:59:04;;;;;;;4.20;3.60;;;35.60;24.40;;;;;;5030769;28;20524;-50
2022/08/14 11:01:35;;;;;;;3.97;3.70;;;35.70;23.90;;;;;;5031158;28;20830;-48
2022/08/14 11:04:01;;;;;;;4.03;3.83;;;35.60;23.60;;;;;;5030631;28;20424;-50
2022/08/14 11:06:29;;;;;;;5.40;3.87;;;35.00;24.20;;;;;;5030514;28;20469;-47
2022/08/14 11:08:55;;;;;;;4.00;3.70;;;34.90;24.40;;;;;;5029567;28;20216;-50
2022/08/14 11:11:25;;;;;;;4.90;4.20;;;35.10;24.60;;;;;;5030603;28;20424;-50
2022/08/14 11:13:56;;;;;;;4.40;4.10;;;35.40;24.60;;;;;;5030303;28;20432;-48
2022/08/14 11:16:23;;;;;;;4.30;3.97;;;35.50;24.00;;;;;;5030636;28;20526;-50
2022/08/14 11:18:49;;;;;;;4.40;4.00;;;35.50;24.10;;;;;;5030504;28;20443;-48
2022/08/14 11:21:18;;;;;;;3.90;3.70;;;35.00;24.20;;;;;;5031150;28;20428;-50
2022/08/14 11:23:46;;;;;;;4.03;3.80;;;34.70;24.70;;;;;;5030459;28;20436;-51
2022/08/14 11:26:13;;;;;;;4.20;3.60;;;34.80;24.60;;;;;;5030324;28;20527;-48
2022/08/14 11:28:43;;;;;;;3.93;3.73;;;35.30;24.40;;;;;;5030063;28;20454;-50
2022/08/14 11:31:12;;;;;;;4.23;3.93;;;35.90;23.80;;;;;;5030788;28;20428;-51
2022/08/14 11:33:40;;;;;;;4.33;4.03;;;36.30;23.40;;;;;;5029958;28;20503;-50
2022/08/14 11:36:08;;;;;;;4.40;4.10;;;36.60;22.70;;;;;;5028719;28;20445;-48
2022/08/14 11:38:41;;;;;;;4.50;4.20;;;36.90;22.80;;;;;;5030410;28;20599;-48
2022/08/14 11:41:07;;;;;;;4.67;4.27;;;36.70;23.00;;;;;;5030553;28;20435;-49
2022/08/14 11:43:47;;;;;;;4.70;4.30;;;36.80;23.00;;;;;;5030191;28;20435;-49
2022/08/14 11:46:15;;;;;;;4.70;4.40;;;36.40;22.60;;;;;;5030419;28;20437;-46
2022/08/14 11:48:50;;;;;;;4.57;4.27;;;35.50;23.30;;;;;;5030138;28;20431;-50
2022/08/14 11:51:24;;;;;;;4.30;4.00;;;35.40;23.80;;;;;;5030741;28;20443;-49
2022/08/14 11:53:53;;;;;;;3.60;3.40;;;35.30;23.30;;;;;;5029878;28;20443;-46
2022/08/14 11:56:20;;;;;;;4.10;3.90;;;35.30;23.50;;;;;;5029965;28;20431;-47
2022/08/14 11:58:51;;;;;;;3.73;3.50;;;35.70;23.60;;;;;;5030151;28;20514;-46
2022/08/14 12:01:27;;;;;;;4.13;3.83;;;36.10;23.20;;;;;;5030623;28;20446;-46
2022/08/14 12:03:55;;;;;;;4.53;4.13;;;36.80;22.90;;;;;;5028326;28;20514;-47
2022/08/14 12:06:21;;;;;;;3.73;3.53;;;37.20;22.60;;;;;;5030055;28;20834;-46
2022/08/14 12:08:52;;;;;;;4.00;3.80;;;37.70;21.90;;;;;;5030062;28;20427;-46
2022/08/14 12:11:19;;;;;;;3.70;3.50;;;37.90;21.60;;;;;;5030652;28;20201;-47
2022/08/14 12:13:46;;;;;;;3.97;3.73;;;38.00;21.80;;;;;;5029866;28;20483;-46
2022/08/14 12:16:15;;;;;;;4.20;3.90;;;38.30;21.80;;;;;;5030063;28;20810;-50
2022/08/14 12:18:43;;;;;;;4.20;4.00;;;37.50;21.20;;;;;;5030057;28;20526;-47
2022/08/14 12:21:16;;;;;;;3.70;3.50;;;37.40;21.40;;;;;;5030133;28;20438;-50
2022/08/14 12:23:42;;;;;;;3.40;3.20;;;37.00;21.10;;;;;;5029439;28;20502;-47
2022/08/14 12:26:12;;;;;;;3.03;2.83;;;36.90;20.10;;;;;;5029993;28;20550;-50
2022/08/14 12:28:38;;;;;;;3.70;3.50;;;36.90;20.40;;;;;;5029143;28;20427;-51
2022/08/14 12:31:20;;;;;;;3.87;3.57;;;37.00;21.20;;;;;;5029226;28;20419;-48
2022/08/14 12:33:59;;;;;;;5.70;3.80;;;37.00;21.60;;;;;;5029929;28;20493;-46
2022/08/14 12:36:29;;;;;;;4.10;3.90;;;37.20;21.30;;;;;;5029972;28;20443;-50
2022/08/14 12:39:04;;;;;;;4.13;3.80;;;37.50;21.00;;;;;;5029437;28;20479;-49
2022/08/14 12:41:34;;;;;;;3.53;3.33;;;37.80;20.50;;;;;;5033594;28;20442;-47
2022/08/14 12:44:04;;;;;;;4.50;4.13;;;37.40;20.60;;;;;;5033239;28;20438;-48
2022/08/14 12:46:39;;;;;;;4.00;3.80;;;37.50;21.10;;;;;;5033340;28;20510;-48
2022/08/14 12:49:13;;;;;;;4.40;4.00;;;36.90;21.10;;;;;;5033087;28;20438;-50
2022/08/14 12:51:39;;;;;;;3.70;3.40;;;36.90;21.50;;;;;;5033442;28;20529;-52
2022/08/14 12:54:16;;;;;;;4.10;3.80;;;37.30;21.20;;;;;;5033007;28;20455;-47
2022/08/14 12:56:45;;;;;;;2.87;2.77;;;37.40;20.60;;;;;;5031642;28;20481;-47
2022/08/14 12:59:11;;;;;;;3.70;3.40;;;37.20;20.00;;;;;;5032947;28;20431;-51
2022/08/14 13:01:38;;;;;;;3.63;3.33;;;37.10;20.00;;;;;;5033498;28;20465;-49
2022/08/14 13:04:11;;;;;;;3.70;3.50;;;36.80;20.40;;;;;;5032698;28;20431;-50
2022/08/14 13:06:39;;;;;;;3.07;2.97;;;37.00;21.00;;;;;;5032817;28;20933;-49
2022/08/14 13:09:06;;;;;;;5.87;3.83;;;37.40;20.70;;;;;;5032750;28;20442;-47
2022/08/14 13:11:39;;;;;;;3.70;3.40;;;37.80;20.60;;;;;;5033475;28;21603;-47
2022/08/14 13:14:05;;;;;;;3.70;3.50;;;38.20;19.90;;;;;;5032430;28;20534;-50
2022/08/14 13:16:31;;;;;;;3.63;3.43;;;38.40;19.80;;;;;;5032999;28;20428;-46